createdAt,value
2019-03-27T00:02:20.051Z,2.87
2019-03-27T00:04:50.656Z,2.95
2019-03-27T00:07:21.249Z,2.40
2019-03-27T00:09:51.936Z,2.60
2019-03-27T00:12:22.477Z,3.00
2019-03-27T00:14:53.090Z,2.50
2019-03-27T00:17:23.693Z,2.60
2019-03-27T00:19:54.323Z,2.45
2019-03-27T00:22:25.199Z,2.47
2019-03-27T00:24:55.815Z,2.27
2019-03-27T00:27:26.413Z,2.62
2019-03-27T00:29:57.016Z,2.40
2019-03-27T00:32:27.652Z,2.65
2019-03-27T00:34:58.501Z,2.40
2019-03-27T00:37:29.090Z,2.15
2019-03-27T00:39:59.705Z,2.42
2019-03-27T00:42:30.303Z,2.20
2019-03-27T00:45:00.981Z,2.42
2019-03-27T00:47:31.668Z,2.55
2019-03-27T00:50:03.496Z,2.60
2019-03-27T00:52:34.096Z,3.00
2019-03-27T00:55:06.634Z,2.85
2019-03-27T00:57:37.191Z,3.20
2019-03-27T01:00:11.367Z,2.98
2019-03-27T01:02:41.954Z,3.95
2019-03-27T01:05:12.623Z,4.40
2019-03-27T01:07:44.176Z,4.65
2019-03-27T01:10:14.780Z,5.15
2019-03-27T01:12:45.434Z,5.10
2019-03-27T01:15:16.033Z,5.05
2019-03-27T01:17:46.620Z,4.95
2019-03-27T01:20:17.260Z,5.08
2019-03-27T01:22:48.820Z,5.30
2019-03-27T01:25:19.416Z,4.90
2019-03-27T01:27:51.303Z,4.85
2019-03-27T01:30:21.946Z,5.20
2019-03-27T01:32:52.786Z,5.67
2019-03-27T01:35:23.419Z,5.80
2019-03-27T01:37:54.075Z,5.55
2019-03-27T01:40:24.676Z,7.05
2019-03-27T01:42:55.273Z,6.78
2019-03-27T01:45:25.899Z,6.33
2019-03-27T01:47:56.534Z,6.35
2019-03-27T01:50:27.162Z,6.15
2019-03-27T01:52:57.819Z,5.95
2019-03-27T01:55:28.433Z,6.17
2019-03-27T01:57:58.995Z,6.42
2019-03-27T02:00:29.638Z,7.15
2019-03-27T02:03:00.231Z,6.70
2019-03-27T02:05:30.879Z,6.85
2019-03-27T02:08:01.451Z,7.12
2019-03-27T02:10:32.132Z,6.87
2019-03-27T02:13:03.950Z,6.47
2019-03-27T02:15:34.564Z,6.40
2019-03-27T02:18:05.138Z,5.62
2019-03-27T02:20:35.797Z,5.45
2019-03-27T02:23:06.385Z,6.00
2019-03-27T02:25:37.360Z,5.78
2019-03-27T02:28:07.981Z,6.20
2019-03-27T02:30:40.017Z,7.25
2019-03-27T02:33:10.618Z,6.45
2019-03-27T02:35:41.241Z,6.50
2019-03-27T02:38:11.841Z,6.55
2019-03-27T02:40:42.448Z,6.58
2019-03-27T02:43:13.036Z,6.30
2019-03-27T02:45:43.698Z,6.75
2019-03-27T02:48:14.554Z,6.22
2019-03-27T02:50:45.195Z,6.50
2019-03-27T02:53:16.326Z,5.90
2019-03-27T02:55:46.912Z,6.03
2019-03-27T02:58:17.473Z,6.08
2019-03-27T03:00:48.082Z,5.95
2019-03-27T03:03:18.674Z,5.70
2019-03-27T03:05:49.376Z,5.95
2019-03-27T03:08:19.948Z,6.42
2019-03-27T03:10:50.581Z,6.42
2019-03-27T03:13:21.681Z,6.50
2019-03-27T03:15:53.004Z,6.23
2019-03-27T03:18:23.588Z,6.17
2019-03-27T03:20:54.457Z,7.85
2019-03-27T03:23:25.331Z,6.42
2019-03-27T03:25:55.965Z,6.55
2019-03-27T03:28:26.551Z,6.50
2019-03-27T03:30:57.173Z,6.50
2019-03-27T03:33:29.505Z,6.35
2019-03-27T03:36:00.400Z,5.97
2019-03-27T03:38:30.987Z,6.73
2019-03-27T03:41:01.884Z,7.17
2019-03-27T03:43:32.753Z,6.72
2019-03-27T03:46:03.590Z,7.20
2019-03-27T03:48:34.209Z,7.00
2019-03-27T03:51:05.525Z,7.05
2019-03-27T03:53:36.317Z,6.45
2019-03-27T03:56:08.217Z,6.70
2019-03-27T03:58:40.683Z,6.70
2019-03-27T04:01:11.713Z,6.85
2019-03-27T04:03:44.835Z,7.33
2019-03-27T04:06:15.466Z,7.50
2019-03-27T04:08:46.431Z,7.35
2019-03-27T04:11:17.000Z,7.20
2019-03-27T04:13:47.669Z,7.08
2019-03-27T04:16:18.282Z,7.83
2019-03-27T04:18:48.928Z,7.83
2019-03-27T04:21:19.524Z,6.72
2019-03-27T04:23:50.148Z,7.78
2019-03-27T04:26:20.701Z,7.50
2019-03-27T04:28:51.272Z,7.97
2019-03-27T04:31:21.906Z,7.67
2019-03-27T04:33:52.491Z,8.40
2019-03-27T04:36:23.353Z,6.65
2019-03-27T04:38:54.255Z,7.00
2019-03-27T04:41:25.198Z,7.92
2019-03-27T04:43:55.789Z,7.50
2019-03-27T04:46:26.406Z,7.70
2019-03-27T04:48:57.002Z,6.92
2019-03-27T04:51:27.685Z,7.25
2019-03-27T04:53:58.287Z,7.90
2019-03-27T04:56:29.016Z,8.33
2019-03-27T04:58:59.771Z,7.47
2019-03-27T05:01:30.752Z,7.75
2019-03-27T05:04:02.161Z,7.47
2019-03-27T05:06:33.067Z,7.37
2019-03-27T05:09:04.926Z,8.05
2019-03-27T05:11:36.283Z,7.53
2019-03-27T05:14:07.224Z,8.35
2019-03-27T05:16:37.865Z,7.85
2019-03-27T05:19:08.727Z,7.65
2019-03-27T05:21:39.949Z,7.65
2019-03-27T05:24:10.535Z,7.65
2019-03-27T05:26:41.176Z,7.03
2019-03-27T05:29:12.735Z,7.28
2019-03-27T05:31:43.589Z,7.40
2019-03-27T05:34:14.175Z,7.45
2019-03-27T05:36:44.839Z,7.55
2019-03-27T05:39:16.379Z,7.30
2019-03-27T05:41:47.118Z,7.58
2019-03-27T05:44:17.712Z,7.10
2019-03-27T05:46:48.336Z,7.00
2019-03-27T05:49:19.309Z,7.60
2019-03-27T05:51:50.686Z,7.03
2019-03-27T05:54:21.263Z,6.67
2019-03-27T05:56:51.871Z,7.53
2019-03-27T05:59:22.450Z,6.65
2019-03-27T06:01:53.308Z,6.12
2019-03-27T06:04:24.141Z,6.67
2019-03-27T06:06:54.747Z,6.35
2019-03-27T06:09:25.347Z,6.42
2019-03-27T06:11:56.217Z,6.35
2019-03-27T06:14:27.201Z,6.22
2019-03-27T06:16:58.096Z,5.83
2019-03-27T06:19:28.679Z,5.95
2019-03-27T06:21:59.279Z,6.28
2019-03-27T06:24:29.862Z,5.78
2019-03-27T06:27:00.451Z,5.60
2019-03-27T06:29:31.059Z,5.58
2019-03-27T06:32:01.704Z,5.67
2019-03-27T06:34:32.368Z,5.70
2019-03-27T06:37:03.004Z,5.90
2019-03-27T06:39:33.952Z,5.83
2019-03-27T06:42:04.571Z,5.35
2019-03-27T06:44:35.790Z,5.05
2019-03-27T06:47:06.435Z,5.50
2019-03-27T06:49:37.006Z,5.47
2019-03-27T06:52:07.615Z,5.45
2019-03-27T06:54:38.195Z,4.95
2019-03-27T06:57:08.786Z,5.12
2019-03-27T06:59:39.389Z,4.87
2019-03-27T07:02:09.985Z,4.92
2019-03-27T07:04:41.777Z,5.30
2019-03-27T07:07:12.386Z,4.97
2019-03-27T07:09:42.957Z,5.08
2019-03-27T07:12:21.032Z,4.87
2019-03-27T07:14:46.633Z,5.50
2019-03-27T07:17:17.247Z,5.12
2019-03-27T07:19:47.881Z,4.62
2019-03-27T07:22:18.501Z,4.97
2019-03-27T07:24:49.069Z,4.30
2019-03-27T07:27:19.705Z,5.28
2019-03-27T07:29:50.293Z,4.20
2019-03-27T07:32:21.224Z,4.78
2019-03-27T07:34:51.817Z,4.50
2019-03-27T07:37:23.388Z,4.37
2019-03-27T07:39:53.968Z,4.22
2019-03-27T07:42:24.589Z,4.80
2019-03-27T07:44:55.153Z,4.28
2019-03-27T07:47:26.308Z,4.65
2019-03-27T07:49:56.970Z,4.75
2019-03-27T07:52:27.563Z,5.00
2019-03-27T07:54:58.156Z,4.35
2019-03-27T07:57:28.793Z,4.37
2019-03-27T07:59:59.374Z,4.50
2019-03-27T08:02:29.995Z,3.65
2019-03-27T08:05:00.826Z,3.83
2019-03-27T08:07:31.437Z,3.85
2019-03-27T08:10:02.045Z,3.50
2019-03-27T08:12:33.005Z,3.95
2019-03-27T08:15:03.656Z,4.00
2019-03-27T08:17:34.519Z,3.52
2019-03-27T08:20:05.828Z,3.47
2019-03-27T08:22:36.441Z,3.72
2019-03-27T08:25:09.315Z,3.50
2019-03-27T08:27:40.223Z,3.90
2019-03-27T08:30:12.635Z,3.42
2019-03-27T08:32:44.193Z,3.52
2019-03-27T08:35:15.135Z,4.10
2019-03-27T08:37:45.818Z,4.25
2019-03-27T08:40:16.490Z,4.10
2019-03-27T08:42:47.075Z,4.47
2019-03-27T08:45:19.154Z,4.55
2019-03-27T08:47:49.788Z,3.85
2019-03-27T08:50:20.691Z,4.00
2019-03-27T08:52:51.646Z,4.17
2019-03-27T08:55:22.503Z,3.87
2019-03-27T08:57:53.114Z,3.60
2019-03-27T09:00:48.077Z,4.37
2019-03-27T09:03:19.115Z,3.85
2019-03-27T09:05:49.884Z,3.90
2019-03-27T09:08:20.620Z,3.58
2019-03-27T09:10:51.448Z,3.52
2019-03-27T09:13:22.040Z,3.58
2019-03-27T09:15:52.612Z,3.77
2019-03-27T09:18:23.574Z,3.47
2019-03-27T09:20:54.173Z,3.52
2019-03-27T09:23:24.807Z,3.67
2019-03-27T09:25:55.432Z,3.47
2019-03-27T09:28:26.999Z,3.35
2019-03-27T09:30:57.576Z,4.05
2019-03-27T09:33:28.217Z,3.52
2019-03-27T09:35:58.917Z,3.00
2019-03-27T09:38:29.621Z,3.50
2019-03-27T09:41:00.570Z,3.12
2019-03-27T09:43:31.194Z,3.80
2019-03-27T09:46:01.769Z,3.40
2019-03-27T09:48:32.465Z,3.67
2019-03-27T09:51:03.097Z,3.00
2019-03-27T09:53:33.680Z,3.02
2019-03-27T09:56:18.095Z,3.45
2019-03-27T09:58:36.574Z,2.83
2019-03-27T10:01:07.719Z,2.70
2019-03-27T10:03:38.760Z,2.42
2019-03-27T10:06:09.431Z,2.62
2019-03-27T10:08:40.312Z,2.58
2019-03-27T10:11:10.896Z,3.00
2019-03-27T10:13:41.522Z,3.10
2019-03-27T10:16:12.103Z,2.95
2019-03-27T10:18:43.704Z,2.70
2019-03-27T10:21:15.481Z,2.52
2019-03-27T10:23:46.091Z,2.70
2019-03-27T10:26:16.678Z,3.17
2019-03-27T10:28:47.323Z,2.40
2019-03-27T10:31:17.908Z,3.62
2019-03-27T10:33:48.501Z,3.02
2019-03-27T10:36:19.165Z,2.90
2019-03-27T10:38:49.932Z,2.87
2019-03-27T10:41:20.828Z,3.30
2019-03-27T10:43:52.411Z,4.40
2019-03-27T10:46:23.008Z,3.40
2019-03-27T10:48:54.780Z,3.10
2019-03-27T10:51:25.688Z,3.00
2019-03-27T10:53:56.698Z,2.83
2019-03-27T10:56:27.550Z,2.92
2019-03-27T10:58:58.505Z,3.00
2019-03-27T11:01:29.658Z,2.35
2019-03-27T11:04:00.512Z,2.40
2019-03-27T11:06:31.199Z,2.92
2019-03-27T11:09:01.822Z,2.55
2019-03-27T11:11:34.031Z,2.42
2019-03-27T11:14:04.641Z,2.50
2019-03-27T11:16:35.208Z,2.70
2019-03-27T11:19:06.120Z,2.40
2019-03-27T11:21:36.718Z,3.10
2019-03-27T11:24:07.333Z,2.70
2019-03-27T11:26:38.249Z,3.05
2019-03-27T11:29:08.839Z,3.05
2019-03-27T11:31:39.407Z,3.02
2019-03-27T11:34:10.278Z,2.83
2019-03-27T11:36:40.844Z,2.87
2019-03-27T11:39:11.636Z,3.00
2019-03-27T11:41:42.249Z,5.72
2019-03-27T11:44:12.936Z,3.05
2019-03-27T11:46:43.464Z,2.95
2019-03-27T11:49:14.345Z,3.12
2019-03-27T11:51:45.472Z,3.00
2019-03-27T11:54:16.368Z,2.90
2019-03-27T11:56:46.945Z,2.98
2019-03-27T11:59:17.549Z,2.75
2019-03-27T12:01:48.140Z,2.62
2019-03-27T12:04:18.743Z,2.47
2019-03-27T12:06:49.319Z,2.65
2019-03-27T12:09:19.969Z,2.55
2019-03-27T12:11:50.519Z,2.98
2019-03-27T12:14:21.171Z,3.45
2019-03-27T12:16:51.761Z,2.70
2019-03-27T12:19:22.388Z,3.33
2019-03-27T12:21:54.800Z,2.70
2019-03-27T12:24:25.334Z,3.17
2019-03-27T12:26:55.924Z,2.92
2019-03-27T12:29:26.783Z,2.55
2019-03-27T12:31:57.494Z,2.85
2019-03-27T12:34:28.125Z,3.40
2019-03-27T12:36:58.738Z,2.80
2019-03-27T12:39:29.396Z,2.98
2019-03-27T12:42:00.262Z,3.10
2019-03-27T12:44:30.873Z,4.15
2019-03-27T12:47:01.495Z,2.80
2019-03-27T12:49:32.087Z,3.25
2019-03-27T12:52:05.384Z,3.22
2019-03-27T12:54:34.982Z,3.10
2019-03-27T12:57:05.628Z,3.22
2019-03-27T12:59:36.476Z,3.15
2019-03-27T13:02:08.075Z,3.02
2019-03-27T13:04:38.911Z,2.62
2019-03-27T13:07:09.759Z,3.15
2019-03-27T13:09:40.396Z,2.55
2019-03-27T13:12:11.072Z,2.87
2019-03-27T13:14:41.689Z,2.72
2019-03-27T13:17:12.272Z,2.85
2019-03-27T13:19:42.907Z,3.10
2019-03-27T13:22:13.485Z,3.02
2019-03-27T13:24:44.085Z,2.50
2019-03-27T13:27:14.714Z,2.90
2019-03-27T13:29:45.324Z,2.72
2019-03-27T13:32:16.216Z,2.70
2019-03-27T13:34:46.830Z,2.90
2019-03-27T13:37:17.415Z,2.80
2019-03-27T13:39:48.076Z,2.80
2019-03-27T13:42:18.664Z,2.95
2019-03-27T13:44:49.288Z,3.35
2019-03-27T13:47:19.882Z,2.95
2019-03-27T13:49:50.831Z,3.02
2019-03-27T13:52:21.411Z,3.00
2019-03-27T13:54:52.032Z,2.83
2019-03-27T13:57:22.624Z,3.25
2019-03-27T13:59:53.228Z,4.55
2019-03-27T14:02:24.064Z,3.55
2019-03-27T14:04:54.655Z,3.00
2019-03-27T14:07:25.272Z,3.20
2019-03-27T14:09:55.888Z,3.20
2019-03-27T14:12:26.478Z,2.90
2019-03-27T14:14:57.092Z,2.83
2019-03-27T14:17:27.677Z,2.90
2019-03-27T14:19:58.382Z,3.30
2019-03-27T14:22:28.960Z,3.10
2019-03-27T14:24:59.586Z,2.90
2019-03-27T14:27:30.423Z,3.92
2019-03-27T14:30:01.048Z,3.50
2019-03-27T14:32:31.727Z,3.62
2019-03-27T14:35:02.325Z,3.50
2019-03-27T14:37:33.387Z,2.80
2019-03-27T14:40:04.541Z,3.35
2019-03-27T14:42:35.387Z,2.75
2019-03-27T14:45:08.735Z,3.10
2019-03-27T14:47:39.317Z,3.67
2019-03-27T14:50:10.573Z,2.83
2019-03-27T14:52:41.225Z,3.17
2019-03-27T14:55:11.967Z,3.42
2019-03-27T14:57:42.806Z,3.30
2019-03-27T15:00:13.782Z,3.37
2019-03-27T15:02:44.659Z,3.05
2019-03-27T15:05:15.942Z,3.08
2019-03-27T15:07:46.628Z,3.55
2019-03-27T15:10:27.205Z,3.08
2019-03-27T15:13:04.488Z,3.33
2019-03-27T15:15:35.155Z,3.80
2019-03-27T15:18:05.849Z,2.83
2019-03-27T15:20:38.146Z,3.60
2019-03-27T15:23:09.147Z,3.15
2019-03-27T15:25:41.034Z,3.25
2019-03-27T15:28:11.924Z,3.15
2019-03-27T15:30:42.508Z,3.30
2019-03-27T15:33:13.355Z,3.35
2019-03-27T15:35:44.722Z,3.90
2019-03-27T15:38:15.335Z,3.30
2019-03-27T15:40:47.573Z,3.08
2019-03-27T15:43:18.219Z,3.08
2019-03-27T15:45:48.845Z,3.15
2019-03-27T15:48:19.435Z,3.10
2019-03-27T15:50:57.106Z,3.67
2019-03-27T15:53:22.706Z,3.50
2019-03-27T15:55:53.332Z,3.47
2019-03-27T15:58:23.916Z,3.40
2019-03-27T16:00:54.516Z,3.90
2019-03-27T16:03:25.133Z,3.80
2019-03-27T16:05:55.773Z,4.08
2019-03-27T16:08:26.662Z,3.60
2019-03-27T16:10:57.498Z,4.58
2019-03-27T16:13:28.103Z,4.03
2019-03-27T16:15:58.732Z,3.75
2019-03-27T16:18:29.318Z,3.72
2019-03-27T16:20:59.910Z,3.95
2019-03-27T16:23:32.336Z,3.65
2019-03-27T16:26:03.095Z,3.92
2019-03-27T16:28:33.704Z,4.03
2019-03-27T16:31:04.320Z,3.42
2019-03-27T16:33:35.598Z,3.60
2019-03-27T16:36:06.202Z,3.90
2019-03-27T16:38:37.745Z,3.80
2019-03-27T16:41:08.390Z,3.62
2019-03-27T16:43:38.979Z,3.75
2019-03-27T16:46:09.575Z,3.50
2019-03-27T16:48:40.172Z,3.60
2019-03-27T16:51:11.046Z,3.30
2019-03-27T16:53:41.640Z,3.75
2019-03-27T16:56:12.268Z,4.15
2019-03-27T16:58:42.863Z,4.10
2019-03-27T17:01:13.558Z,4.17
2019-03-27T17:03:44.135Z,3.60
2019-03-27T17:06:15.715Z,3.70
2019-03-27T17:08:47.160Z,3.70
2019-03-27T17:11:17.784Z,3.65
2019-03-27T17:13:48.368Z,3.62
2019-03-27T17:16:18.964Z,3.62
2019-03-27T17:18:50.526Z,5.08
2019-03-27T17:21:21.955Z,4.53
2019-03-27T17:23:52.592Z,4.92
2019-03-27T17:26:23.648Z,5.25
2019-03-27T17:28:55.515Z,4.78
2019-03-27T17:31:26.718Z,3.67
2019-03-27T17:33:57.299Z,4.10
2019-03-27T17:36:28.215Z,3.20
2019-03-27T17:38:58.802Z,3.52
2019-03-27T17:41:30.379Z,3.72
2019-03-27T17:44:00.998Z,3.33
2019-03-27T17:46:31.716Z,3.52
2019-03-27T17:49:02.326Z,3.92
2019-03-27T17:51:33.016Z,3.67
2019-03-27T17:54:03.582Z,3.77
2019-03-27T17:56:34.586Z,3.90
2019-03-27T17:59:05.174Z,3.70
2019-03-27T18:01:36.130Z,3.98
2019-03-27T18:04:06.711Z,3.98
2019-03-27T18:06:38.691Z,4.30
2019-03-27T18:09:09.799Z,3.90
2019-03-27T18:11:40.445Z,4.10
2019-03-27T18:14:11.387Z,3.70
2019-03-27T18:16:42.046Z,4.17
2019-03-27T18:19:12.596Z,4.10
2019-03-27T18:21:43.222Z,4.42
2019-03-27T18:24:13.815Z,4.25
2019-03-27T18:26:44.683Z,4.55
2019-03-27T18:29:15.510Z,4.80
2019-03-27T18:31:46.115Z,4.22
2019-03-27T18:34:16.951Z,4.55
2019-03-27T18:36:48.141Z,4.90
2019-03-27T18:39:18.742Z,4.90
2019-03-27T18:41:49.858Z,5.10
2019-03-27T18:44:20.698Z,5.50
2019-03-27T18:46:51.571Z,5.30
2019-03-27T18:49:22.179Z,5.03
2019-03-27T18:51:53.156Z,5.55
2019-03-27T18:54:23.767Z,4.97
2019-03-27T18:56:54.400Z,6.08
2019-03-27T18:59:25.016Z,5.65
2019-03-27T19:01:55.883Z,5.60
2019-03-27T19:04:26.528Z,5.03
2019-03-27T19:06:58.815Z,5.97
2019-03-27T19:09:29.521Z,5.22
2019-03-27T19:12:00.135Z,5.65
2019-03-27T19:14:30.729Z,6.03
2019-03-27T19:17:01.334Z,5.65
2019-03-27T19:19:31.919Z,6.00
2019-03-27T19:22:02.526Z,5.62
2019-03-27T19:24:33.136Z,5.62
2019-03-27T19:27:03.767Z,5.58
2019-03-27T19:29:34.379Z,4.60
2019-03-27T19:32:05.007Z,4.85
2019-03-27T19:34:35.599Z,5.10
2019-03-27T19:37:06.207Z,4.90
2019-03-27T19:39:37.776Z,4.30
2019-03-27T19:42:08.409Z,4.08
2019-03-27T19:44:39.296Z,4.25
2019-03-27T19:47:09.937Z,5.15
2019-03-27T19:49:40.535Z,4.80
2019-03-27T19:52:11.153Z,5.65
2019-03-27T19:54:41.728Z,4.85
2019-03-27T19:57:12.387Z,5.50
2019-03-27T19:59:42.955Z,6.03
2019-03-27T20:02:13.569Z,6.25
2019-03-27T20:04:44.163Z,7.05
2019-03-27T20:07:14.791Z,7.72
2019-03-27T20:09:45.405Z,7.78
2019-03-27T20:12:16.042Z,8.13
2019-03-27T20:14:47.011Z,8.55
2019-03-27T20:17:17.608Z,8.70
2019-03-27T20:19:48.298Z,8.50
2019-03-27T20:22:18.920Z,8.50
2019-03-27T20:24:49.856Z,8.48
2019-03-27T20:27:20.490Z,8.63
2019-03-27T20:29:51.294Z,7.65
2019-03-27T20:32:22.168Z,7.72
2019-03-27T20:34:53.200Z,7.53
2019-03-27T20:37:23.828Z,7.80
2019-03-27T20:39:54.516Z,7.12
2019-03-27T20:42:25.484Z,7.47
2019-03-27T20:44:56.145Z,7.10
2019-03-27T20:47:27.070Z,6.70
2019-03-27T20:49:57.943Z,7.92
2019-03-27T20:52:28.618Z,6.72
2019-03-27T20:54:59.280Z,6.25
2019-03-27T20:57:29.907Z,6.37
2019-03-27T21:00:00.836Z,6.72
2019-03-27T21:02:33.295Z,6.83
2019-03-27T21:05:04.090Z,6.92
2019-03-27T21:07:35.963Z,7.42
2019-03-27T21:10:07.613Z,7.08
2019-03-27T21:12:38.249Z,6.67
2019-03-27T21:15:09.275Z,6.85
2019-03-27T21:17:40.206Z,6.72
2019-03-27T21:20:11.028Z,6.05
2019-03-27T21:22:41.638Z,7.00
2019-03-27T21:25:12.520Z,6.75
2019-03-27T21:27:43.503Z,6.40
2019-03-27T21:30:15.188Z,7.12
2019-03-27T21:32:46.433Z,7.03
2019-03-27T21:35:17.165Z,6.90
2019-03-27T21:37:48.010Z,6.92
2019-03-27T21:40:18.710Z,7.00
2019-03-27T21:42:49.326Z,6.72
2019-03-27T21:45:20.497Z,6.67
2019-03-27T21:47:51.937Z,6.58
2019-03-27T21:50:22.577Z,6.20
2019-03-27T21:53:00.470Z,6.08
2019-03-27T21:55:25.703Z,6.60
2019-03-27T21:57:56.941Z,5.92
2019-03-27T22:00:37.545Z,6.42
2019-03-27T22:03:08.473Z,6.50
2019-03-27T22:05:39.089Z,6.33
2019-03-27T22:08:09.708Z,7.20
2019-03-27T22:10:40.404Z,6.95
2019-03-27T22:13:11.019Z,6.67
2019-03-27T22:15:41.934Z,6.30
2019-03-27T22:18:12.557Z,6.58
2019-03-27T22:20:43.149Z,6.33
2019-03-27T22:23:13.767Z,6.25
2019-03-27T22:25:44.415Z,6.47
2019-03-27T22:28:15.276Z,6.50
2019-03-27T22:30:45.888Z,5.95
2019-03-27T22:33:16.489Z,6.80
2019-03-27T22:35:47.077Z,6.17
2019-03-27T22:38:17.718Z,6.40
2019-03-27T22:40:48.302Z,6.58
2019-03-27T22:43:19.185Z,6.53
2019-03-27T22:45:49.805Z,6.15
2019-03-27T22:48:20.454Z,6.65
2019-03-27T22:50:51.308Z,6.37
2019-03-27T22:53:23.199Z,6.30
2019-03-27T22:55:53.797Z,6.28
2019-03-27T22:58:24.781Z,7.03
2019-03-27T23:00:56.015Z,7.15
2019-03-27T23:03:27.369Z,6.80
2019-03-27T23:05:57.949Z,6.37
2019-03-27T23:08:28.567Z,5.90
2019-03-27T23:10:59.421Z,6.17
2019-03-27T23:13:30.068Z,7.00
2019-03-27T23:16:00.767Z,6.97
2019-03-27T23:18:31.394Z,7.35
2019-03-27T23:21:01.992Z,7.20
2019-03-27T23:23:32.595Z,6.50
2019-03-27T23:26:03.766Z,7.00
2019-03-27T23:28:34.461Z,6.20
